sensor_id;sensor_type;location;lat;lon;timestamp;temperature;humidity
40023;DHT22;25713;-35.352;149.036;2023-07-30T00:00:14;12.70;90.10
40023;DHT22;25713;-35.352;149.036;2023-07-30T00:02:43;12.70;88.60
40023;DHT22;25713;-35.352;149.036;2023-07-30T00:05:13;12.80;89.60
40023;DHT22;25713;-35.352;149.036;2023-07-30T00:07:44;12.80;88.30
40023;DHT22;25713;-35.352;149.036;2023-07-30T00:10:13;12.70;86.40
40023;DHT22;25713;-35.352;149.036;2023-07-30T00:12:43;12.70;86.30
40023;DHT22;25713;-35.352;149.036;2023-07-30T00:15:12;12.70;87.60
40023;DHT22;25713;-35.352;149.036;2023-07-30T00:17:42;12.80;84.80
40023;DHT22;25713;-35.352;149.036;2023-07-30T00:20:11;12.80;85.60
40023;DHT22;25713;-35.352;149.036;2023-07-30T00:22:43;12.80;85.90
40023;DHT22;25713;-35.352;149.036;2023-07-30T00:25:12;12.90;85.80
40023;DHT22;25713;-35.352;149.036;2023-07-30T00:27:42;13.00;85.70
40023;DHT22;25713;-35.352;149.036;2023-07-30T00:30:12;13.00;85.30
40023;DHT22;25713;-35.352;149.036;2023-07-30T00:32:42;13.00;85.10
40023;DHT22;25713;-35.352;149.036;2023-07-30T00:35:11;13.00;83.30
40023;DHT22;25713;-35.352;149.036;2023-07-30T00:37:43;13.10;83.20
40023;DHT22;25713;-35.352;149.036;2023-07-30T00:40:12;13.10;83.10
40023;DHT22;25713;-35.352;149.036;2023-07-30T00:42:42;13.10;82.90
40023;DHT22;25713;-35.352;149.036;2023-07-30T00:45:11;13.20;82.40
40023;DHT22;25713;-35.352;149.036;2023-07-30T00:47:41;13.20;83.20
40023;DHT22;25713;-35.352;149.036;2023-07-30T00:50:13;13.30;82.10
40023;DHT22;25713;-35.352;149.036;2023-07-30T00:52:47;13.30;83.70
40023;DHT22;25713;-35.352;149.036;2023-07-30T00:55:17;13.30;82.60
40023;DHT22;25713;-35.352;149.036;2023-07-30T00:57:47;13.30;81.60
40023;DHT22;25713;-35.352;149.036;2023-07-30T01:00:17;13.30;80.20
40023;DHT22;25713;-35.352;149.036;2023-07-30T01:02:47;13.40;81.30
40023;DHT22;25713;-35.352;149.036;2023-07-30T01:05:16;13.40;81.60
40023;DHT22;25713;-35.352;149.036;2023-07-30T01:07:48;13.50;81.50
40023;DHT22;25713;-35.352;149.036;2023-07-30T01:10:17;13.50;81.10
40023;DHT22;25713;-35.352;149.036;2023-07-30T01:12:47;13.50;80.90
40023;DHT22;25713;-35.352;149.036;2023-07-30T01:15:17;13.50;79.60
40023;DHT22;25713;-35.352;149.036;2023-07-30T01:17:47;13.60;80.90
40023;DHT22;25713;-35.352;149.036;2023-07-30T01:20:16;13.60;80.80
40023;DHT22;25713;-35.352;149.036;2023-07-30T01:22:48;13.60;80.70
40023;DHT22;25713;-35.352;149.036;2023-07-30T01:25:17;13.60;80.80
40023;DHT22;25713;-35.352;149.036;2023-07-30T01:27:52;13.70;80.50
40023;DHT22;25713;-35.352;149.036;2023-07-30T01:30:27;13.70;81.40
40023;DHT22;25713;-35.352;149.036;2023-07-30T01:32:57;13.70;82.70
40023;DHT22;25713;-35.352;149.036;2023-07-30T01:35:27;13.80;81.00
40023;DHT22;25713;-35.352;149.036;2023-07-30T01:38:00;13.90;80.30
40023;DHT22;25713;-35.352;149.036;2023-07-30T01:40:30;13.90;80.70
40023;DHT22;25713;-35.352;149.036;2023-07-30T01:42:59;13.90;80.00
40023;DHT22;25713;-35.352;149.036;2023-07-30T01:45:28;14.00;79.40
40023;DHT22;25713;-35.352;149.036;2023-07-30T01:47:58;14.00;79.50
40023;DHT22;25713;-35.352;149.036;2023-07-30T01:50:28;14.20;77.90
40023;DHT22;25713;-35.352;149.036;2023-07-30T01:52:59;14.20;78.10
40023;DHT22;25713;-35.352;149.036;2023-07-30T01:55:28;14.20;76.20
40023;DHT22;25713;-35.352;149.036;2023-07-30T01:57:58;14.20;77.50
40023;DHT22;25713;-35.352;149.036;2023-07-30T02:00:27;14.10;75.30
40023;DHT22;25713;-35.352;149.036;2023-07-30T02:03:06;14.10;78.10
40023;DHT22;25713;-35.352;149.036;2023-07-30T02:05:35;14.20;76.50
40023;DHT22;25713;-35.352;149.036;2023-07-30T02:08:07;14.20;76.60
40023;DHT22;25713;-35.352;149.036;2023-07-30T02:10:36;14.30;77.30
40023;DHT22;25713;-35.352;149.036;2023-07-30T02:13:06;14.30;76.10
40023;DHT22;25713;-35.352;149.036;2023-07-30T02:15:39;14.40;76.30
40023;DHT22;25713;-35.352;149.036;2023-07-30T02:18:08;14.40;75.50
40023;DHT22;25713;-35.352;149.036;2023-07-30T02:20:38;14.40;76.30
40023;DHT22;25713;-35.352;149.036;2023-07-30T02:23:09;14.50;76.00
40023;DHT22;25713;-35.352;149.036;2023-07-30T02:25:39;14.60;75.50
40023;DHT22;25713;-35.352;149.036;2023-07-30T02:28:09;14.60;74.90
40023;DHT22;25713;-35.352;149.036;2023-07-30T02:30:39;14.60;75.80
40023;DHT22;25713;-35.352;149.036;2023-07-30T02:33:08;14.60;74.70
40023;DHT22;25713;-35.352;149.036;2023-07-30T02:35:38;14.60;76.00
40023;DHT22;25713;-35.352;149.036;2023-07-30T02:38:10;14.70;76.50
40023;DHT22;25713;-35.352;149.036;2023-07-30T02:40:39;14.70;75.50
40023;DHT22;25713;-35.352;149.036;2023-07-30T02:43:09;14.70;75.30
40023;DHT22;25713;-35.352;149.036;2023-07-30T02:45:39;14.70;75.20
40023;DHT22;25713;-35.352;149.036;2023-07-30T02:48:09;14.80;77.00
40023;DHT22;25713;-35.352;149.036;2023-07-30T02:50:38;14.60;75.90
40023;DHT22;25713;-35.352;149.036;2023-07-30T02:53:10;14.70;76.30
40023;DHT22;25713;-35.352;149.036;2023-07-30T02:55:39;14.70;76.00
40023;DHT22;25713;-35.352;149.036;2023-07-30T02:58:08;14.80;76.00
40023;DHT22;25713;-35.352;149.036;2023-07-30T03:00:38;14.80;75.50
40023;DHT22;25713;-35.352;149.036;2023-07-30T03:03:08;14.70;75.30
40023;DHT22;25713;-35.352;149.036;2023-07-30T03:05:37;14.80;76.30
40023;DHT22;25713;-35.352;149.036;2023-07-30T03:08:08;14.80;75.80
40023;DHT22;25713;-35.352;149.036;2023-07-30T03:10:38;14.70;73.90
40023;DHT22;25713;-35.352;149.036;2023-07-30T03:13:07;14.80;75.20
40023;DHT22;25713;-35.352;149.036;2023-07-30T03:15:36;14.80;75.30
40023;DHT22;25713;-35.352;149.036;2023-07-30T03:18:06;14.70;75.60
40023;DHT22;25713;-35.352;149.036;2023-07-30T03:20:36;14.70;74.90
40023;DHT22;25713;-35.352;149.036;2023-07-30T03:23:10;14.80;76.50
40023;DHT22;25713;-35.352;149.036;2023-07-30T03:25:41;14.80;75.20
40023;DHT22;25713;-35.352;149.036;2023-07-30T03:28:11;14.70;75.10
40023;DHT22;25713;-35.352;149.036;2023-07-30T03:30:41;14.70;76.00
40023;DHT22;25713;-35.352;149.036;2023-07-30T03:33:11;14.60;76.20
40023;DHT22;25713;-35.352;149.036;2023-07-30T03:35:42;14.80;75.50
40023;DHT22;25713;-35.352;149.036;2023-07-30T03:38:14;14.80;76.00
40023;DHT22;25713;-35.352;149.036;2023-07-30T03:40:47;14.80;75.50
40023;DHT22;25713;-35.352;149.036;2023-07-30T03:43:17;14.80;75.70
40023;DHT22;25713;-35.352;149.036;2023-07-30T03:45:48;14.90;76.30
40023;DHT22;25713;-35.352;149.036;2023-07-30T03:48:18;14.80;75.70
40023;DHT22;25713;-35.352;149.036;2023-07-30T03:50:49;14.80;75.70
40023;DHT22;25713;-35.352;149.036;2023-07-30T03:53:22;14.90;75.70
40023;DHT22;25713;-35.352;149.036;2023-07-30T03:55:53;14.90;76.30
40023;DHT22;25713;-35.352;149.036;2023-07-30T03:58:24;15.00;74.80
40023;DHT22;25713;-35.352;149.036;2023-07-30T04:00:54;14.90;75.70
40023;DHT22;25713;-35.352;149.036;2023-07-30T04:03:24;14.80;75.90
40023;DHT22;25713;-35.352;149.036;2023-07-30T04:05:54;14.80;75.40
40023;DHT22;25713;-35.352;149.036;2023-07-30T04:08:27;14.80;75.50
40023;DHT22;25713;-35.352;149.036;2023-07-30T04:10:58;14.80;75.40
40023;DHT22;25713;-35.352;149.036;2023-07-30T04:13:31;14.90;75.40
40023;DHT22;25713;-35.352;149.036;2023-07-30T04:16:01;14.90;74.60
40023;DHT22;25713;-35.352;149.036;2023-07-30T04:18:31;14.80;74.30
40023;DHT22;25713;-35.352;149.036;2023-07-30T04:21:01;14.80;75.60
40023;DHT22;25713;-35.352;149.036;2023-07-30T04:23:34;14.90;76.40
40023;DHT22;25713;-35.352;149.036;2023-07-30T04:26:02;14.80;73.90
40023;DHT22;25713;-35.352;149.036;2023-07-30T04:28:32;14.80;73.50
40023;DHT22;25713;-35.352;149.036;2023-07-30T04:31:03;14.80;75.70
40023;DHT22;25713;-35.352;149.036;2023-07-30T04:33:33;14.90;75.40
40023;DHT22;25713;-35.352;149.036;2023-07-30T04:36:04;14.80;73.70
40023;DHT22;25713;-35.352;149.036;2023-07-30T04:38:37;14.80;74.90
40023;DHT22;25713;-35.352;149.036;2023-07-30T04:41:07;14.70;74.20
40023;DHT22;25713;-35.352;149.036;2023-07-30T04:43:43;14.70;74.00
40023;DHT22;25713;-35.352;149.036;2023-07-30T04:46:13;14.90;75.40
40023;DHT22;25713;-35.352;149.036;2023-07-30T04:48:43;14.80;75.90
40023;DHT22;25713;-35.352;149.036;2023-07-30T04:51:15;14.80;75.60
40023;DHT22;25713;-35.352;149.036;2023-07-30T04:53:47;14.80;76.10
40023;DHT22;25713;-35.352;149.036;2023-07-30T04:56:18;14.70;76.20
40023;DHT22;25713;-35.352;149.036;2023-07-30T04:58:48;14.80;75.50
40023;DHT22;25713;-35.352;149.036;2023-07-30T05:01:18;14.80;76.50
40023;DHT22;25713;-35.352;149.036;2023-07-30T05:03:48;14.90;76.00
40023;DHT22;25713;-35.352;149.036;2023-07-30T05:06:19;14.80;75.80
40023;DHT22;25713;-35.352;149.036;2023-07-30T05:08:51;14.90;76.30
40023;DHT22;25713;-35.352;149.036;2023-07-30T05:11:21;14.90;75.10
40023;DHT22;25713;-35.352;149.036;2023-07-30T05:13:51;14.90;75.60
40023;DHT22;25713;-35.352;149.036;2023-07-30T05:16:21;14.80;76.40
40023;DHT22;25713;-35.352;149.036;2023-07-30T05:18:51;14.70;76.20
40023;DHT22;25713;-35.352;149.036;2023-07-30T05:21:22;14.70;76.10
40023;DHT22;25713;-35.352;149.036;2023-07-30T05:23:54;14.70;77.50
40023;DHT22;25713;-35.352;149.036;2023-07-30T05:26:24;14.70;75.60
40023;DHT22;25713;-35.352;149.036;2023-07-30T05:28:54;14.70;76.30
40023;DHT22;25713;-35.352;149.036;2023-07-30T05:31:24;14.70;75.60
40023;DHT22;25713;-35.352;149.036;2023-07-30T05:33:55;14.60;75.70
40023;DHT22;25713;-35.352;149.036;2023-07-30T05:36:25;14.50;74.80
40023;DHT22;25713;-35.352;149.036;2023-07-30T05:38:58;14.50;75.20
40023;DHT22;25713;-35.352;149.036;2023-07-30T05:41:26;14.50;77.00
40023;DHT22;25713;-35.352;149.036;2023-07-30T05:43:57;14.50;77.00
40023;DHT22;25713;-35.352;149.036;2023-07-30T05:46:26;14.60;76.70
40023;DHT22;25713;-35.352;149.036;2023-07-30T05:48:57;14.50;77.00
40023;DHT22;25713;-35.352;149.036;2023-07-30T05:51:27;14.40;76.30
40023;DHT22;25713;-35.352;149.036;2023-07-30T05:53:59;14.40;76.80
40023;DHT22;25713;-35.352;149.036;2023-07-30T05:56:30;14.40;76.50
40023;DHT22;25713;-35.352;149.036;2023-07-30T05:59:00;14.40;77.80
40023;DHT22;25713;-35.352;149.036;2023-07-30T06:01:30;14.40;76.90
40023;DHT22;25713;-35.352;149.036;2023-07-30T06:04:00;14.40;77.00
40023;DHT22;25713;-35.352;149.036;2023-07-30T06:06:30;14.40;77.10
40023;DHT22;25713;-35.352;149.036;2023-07-30T06:09:02;14.40;77.50
40023;DHT22;25713;-35.352;149.036;2023-07-30T06:11:32;14.40;77.40
40023;DHT22;25713;-35.352;149.036;2023-07-30T06:14:02;14.30;76.60
40023;DHT22;25713;-35.352;149.036;2023-07-30T06:16:32;14.40;76.80
40023;DHT22;25713;-35.352;149.036;2023-07-30T06:19:02;14.30;74.80
40023;DHT22;25713;-35.352;149.036;2023-07-30T06:21:33;14.30;75.80
40023;DHT22;25713;-35.352;149.036;2023-07-30T06:24:06;14.20;75.70
40023;DHT22;25713;-35.352;149.036;2023-07-30T06:26:39;14.20;76.40
40023;DHT22;25713;-35.352;149.036;2023-07-30T06:29:10;14.20;77.50
40023;DHT22;25713;-35.352;149.036;2023-07-30T06:31:40;14.20;76.30
40023;DHT22;25713;-35.352;149.036;2023-07-30T06:34:10;14.10;75.20
40023;DHT22;25713;-35.352;149.036;2023-07-30T06:36:40;14.10;74.60
40023;DHT22;25713;-35.352;149.036;2023-07-30T06:39:13;14.10;75.30
40023;DHT22;25713;-35.352;149.036;2023-07-30T06:41:43;14.00;75.30
40023;DHT22;25713;-35.352;149.036;2023-07-30T06:44:14;14.00;75.60
40023;DHT22;25713;-35.352;149.036;2023-07-30T06:46:47;14.00;75.30
40023;DHT22;25713;-35.352;149.036;2023-07-30T06:49:18;14.00;75.60
40023;DHT22;25713;-35.352;149.036;2023-07-30T06:51:48;13.90;76.30
40023;DHT22;25713;-35.352;149.036;2023-07-30T06:54:20;13.90;75.00
40023;DHT22;25713;-35.352;149.036;2023-07-30T06:56:50;13.90;75.30
40023;DHT22;25713;-35.352;149.036;2023-07-30T06:59:20;13.80;74.50
40023;DHT22;25713;-35.352;149.036;2023-07-30T07:01:50;13.80;75.40
40023;DHT22;25713;-35.352;149.036;2023-07-30T07:04:21;13.80;76.40
40023;DHT22;25713;-35.352;149.036;2023-07-30T07:06:50;13.80;76.90
40023;DHT22;25713;-35.352;149.036;2023-07-30T07:09:23;13.70;76.90
40023;DHT22;25713;-35.352;149.036;2023-07-30T07:11:53;13.70;76.20
40023;DHT22;25713;-35.352;149.036;2023-07-30T07:14:23;13.70;76.30
40023;DHT22;25713;-35.352;149.036;2023-07-30T07:16:53;13.70;76.80
40023;DHT22;25713;-35.352;149.036;2023-07-30T07:19:23;13.70;77.20
40023;DHT22;25713;-35.352;149.036;2023-07-30T07:21:53;13.80;78.30
40023;DHT22;25713;-35.352;149.036;2023-07-30T07:24:26;13.80;76.80
40023;DHT22;25713;-35.352;149.036;2023-07-30T07:26:56;13.80;77.90
40023;DHT22;25713;-35.352;149.036;2023-07-30T07:29:25;13.80;77.50
40023;DHT22;25713;-35.352;149.036;2023-07-30T07:31:55;13.70;77.50
40023;DHT22;25713;-35.352;149.036;2023-07-30T07:34:25;13.70;77.60
40023;DHT22;25713;-35.352;149.036;2023-07-30T07:36:54;13.60;77.30
40023;DHT22;25713;-35.352;149.036;2023-07-30T07:39:27;13.60;78.60
40023;DHT22;25713;-35.352;149.036;2023-07-30T07:41:55;13.70;78.90
40023;DHT22;25713;-35.352;149.036;2023-07-30T07:44:25;13.60;77.90
40023;DHT22;25713;-35.352;149.036;2023-07-30T07:46:54;13.60;79.40
40023;DHT22;25713;-35.352;149.036;2023-07-30T07:49:23;13.60;78.20
40023;DHT22;25713;-35.352;149.036;2023-07-30T07:51:53;13.50;78.30
40023;DHT22;25713;-35.352;149.036;2023-07-30T07:54:26;13.60;79.30
40023;DHT22;25713;-35.352;149.036;2023-07-30T07:56:57;13.50;78.00
40023;DHT22;25713;-35.352;149.036;2023-07-30T07:59:26;13.50;78.80
40023;DHT22;25713;-35.352;149.036;2023-07-30T08:01:56;13.50;78.30
40023;DHT22;25713;-35.352;149.036;2023-07-30T08:04:25;13.50;78.60
40023;DHT22;25713;-35.352;149.036;2023-07-30T08:06:55;13.50;79.50
40023;DHT22;25713;-35.352;149.036;2023-07-30T08:09:27;13.50;79.70
40023;DHT22;25713;-35.352;149.036;2023-07-30T08:11:55;13.50;80.40
40023;DHT22;25713;-35.352;149.036;2023-07-30T08:14:25;13.60;80.00
40023;DHT22;25713;-35.352;149.036;2023-07-30T08:16:54;13.60;79.40
40023;DHT22;25713;-35.352;149.036;2023-07-30T08:19:24;13.70;81.10
40023;DHT22;25713;-35.352;149.036;2023-07-30T08:21:53;13.60;80.10
40023;DHT22;25713;-35.352;149.036;2023-07-30T08:24:26;13.60;81.70
40023;DHT22;25713;-35.352;149.036;2023-07-30T08:26:54;13.70;82.20
40023;DHT22;25713;-35.352;149.036;2023-07-30T08:29:23;13.70;82.10
40023;DHT22;25713;-35.352;149.036;2023-07-30T08:31:53;13.80;81.50
40023;DHT22;25713;-35.352;149.036;2023-07-30T08:34:23;13.80;81.20
40023;DHT22;25713;-35.352;149.036;2023-07-30T08:36:53;13.80;80.60
40023;DHT22;25713;-35.352;149.036;2023-07-30T08:39:26;13.80;82.10
40023;DHT22;25713;-35.352;149.036;2023-07-30T08:41:55;13.80;82.10
40023;DHT22;25713;-35.352;149.036;2023-07-30T08:44:25;13.80;82.40
40023;DHT22;25713;-35.352;149.036;2023-07-30T08:46:55;13.80;82.50
40023;DHT22;25713;-35.352;149.036;2023-07-30T08:49:25;13.80;82.40
40023;DHT22;25713;-35.352;149.036;2023-07-30T08:51:55;13.80;81.90
40023;DHT22;25713;-35.352;149.036;2023-07-30T08:54:29;13.80;81.70
40023;DHT22;25713;-35.352;149.036;2023-07-30T08:56:59;13.70;82.20
40023;DHT22;25713;-35.352;149.036;2023-07-30T08:59:33;13.70;82.10
40023;DHT22;25713;-35.352;149.036;2023-07-30T09:02:08;13.70;82.50
40023;DHT22;25713;-35.352;149.036;2023-07-30T09:04:42;13.70;82.40
40023;DHT22;25713;-35.352;149.036;2023-07-30T09:07:13;13.70;81.80
40023;DHT22;25713;-35.352;149.036;2023-07-30T09:09:45;13.70;82.70
40023;DHT22;25713;-35.352;149.036;2023-07-30T09:12:16;13.70;82.20
40023;DHT22;25713;-35.352;149.036;2023-07-30T09:14:46;13.70;82.90
40023;DHT22;25713;-35.352;149.036;2023-07-30T09:17:20;13.70;81.50
40023;DHT22;25713;-35.352;149.036;2023-07-30T09:19:49;13.60;83.00
40023;DHT22;25713;-35.352;149.036;2023-07-30T09:22:24;13.60;83.10
40023;DHT22;25713;-35.352;149.036;2023-07-30T09:24:56;13.60;82.00
40023;DHT22;25713;-35.352;149.036;2023-07-30T09:27:27;13.60;83.10
40023;DHT22;25713;-35.352;149.036;2023-07-30T09:29:57;13.60;82.70
40023;DHT22;25713;-35.352;149.036;2023-07-30T09:32:27;13.60;82.80
40023;DHT22;25713;-35.352;149.036;2023-07-30T09:35:00;13.60;83.10
40023;DHT22;25713;-35.352;149.036;2023-07-30T09:37:35;13.60;83.30
40023;DHT22;25713;-35.352;149.036;2023-07-30T09:40:11;13.60;83.10
40023;DHT22;25713;-35.352;149.036;2023-07-30T09:42:44;13.60;83.40
40023;DHT22;25713;-35.352;149.036;2023-07-30T09:45:17;13.60;83.70
40023;DHT22;25713;-35.352;149.036;2023-07-30T09:47:49;13.60;83.20
40023;DHT22;25713;-35.352;149.036;2023-07-30T09:50:19;13.60;83.60
40023;DHT22;25713;-35.352;149.036;2023-07-30T09:52:50;13.60;83.60
40023;DHT22;25713;-35.352;149.036;2023-07-30T09:55:22;13.60;83.70
40023;DHT22;25713;-35.352;149.036;2023-07-30T09:57:52;13.60;84.10
40023;DHT22;25713;-35.352;149.036;2023-07-30T10:00:21;13.60;83.50
40023;DHT22;25713;-35.352;149.036;2023-07-30T10:02:51;13.60;84.00
40023;DHT22;25713;-35.352;149.036;2023-07-30T10:05:25;13.60;84.30
40023;DHT22;25713;-35.352;149.036;2023-07-30T10:08:02;13.60;83.70
40023;DHT22;25713;-35.352;149.036;2023-07-30T10:10:38;13.60;82.70
40023;DHT22;25713;-35.352;149.036;2023-07-30T10:13:08;13.50;83.40
40023;DHT22;25713;-35.352;149.036;2023-07-30T10:15:39;13.40;83.30
40023;DHT22;25713;-35.352;149.036;2023-07-30T10:18:09;13.40;83.60
40023;DHT22;25713;-35.352;149.036;2023-07-30T10:20:39;13.30;83.10
40023;DHT22;25713;-35.352;149.036;2023-07-30T10:23:09;13.30;83.90
40023;DHT22;25713;-35.352;149.036;2023-07-30T10:25:52;13.30;84.20
40023;DHT22;25713;-35.352;149.036;2023-07-30T10:28:32;13.20;83.70
40023;DHT22;25713;-35.352;149.036;2023-07-30T10:31:04;13.30;83.70
40023;DHT22;25713;-35.352;149.036;2023-07-30T10:33:47;13.20;83.50
40023;DHT22;25713;-35.352;149.036;2023-07-30T10:36:26;13.20;84.10
40023;DHT22;25713;-35.352;149.036;2023-07-30T10:39:10;13.30;83.70
40023;DHT22;25713;-35.352;149.036;2023-07-30T10:41:44;13.30;84.60
40023;DHT22;25713;-35.352;149.036;2023-07-30T10:44:26;13.20;84.80
40023;DHT22;25713;-35.352;149.036;2023-07-30T10:46:57;13.30;84.10
40023;DHT22;25713;-35.352;149.036;2023-07-30T10:49:28;13.30;84.40
40023;DHT22;25713;-35.352;149.036;2023-07-30T10:51:58;13.30;84.80
40023;DHT22;25713;-35.352;149.036;2023-07-30T10:54:34;13.30;84.40
40023;DHT22;25713;-35.352;149.036;2023-07-30T10:57:07;13.30;84.20
40023;DHT22;25713;-35.352;149.036;2023-07-30T10:59:38;13.20;84.10
40023;DHT22;25713;-35.352;149.036;2023-07-30T11:02:07;13.20;84.60
40023;DHT22;25713;-35.352;149.036;2023-07-30T11:04:37;13.20;83.80
40023;DHT22;25713;-35.352;149.036;2023-07-30T11:07:06;13.20;84.00
40023;DHT22;25713;-35.352;149.036;2023-07-30T11:09:38;13.10;83.90
40023;DHT22;25713;-35.352;149.036;2023-07-30T11:12:11;13.10;83.20
40023;DHT22;25713;-35.352;149.036;2023-07-30T11:14:41;13.00;82.80
40023;DHT22;25713;-35.352;149.036;2023-07-30T11:17:11;13.00;83.40
40023;DHT22;25713;-35.352;149.036;2023-07-30T11:19:44;13.00;83.40
40023;DHT22;25713;-35.352;149.036;2023-07-30T11:22:14;13.10;83.00
40023;DHT22;25713;-35.352;149.036;2023-07-30T11:24:43;13.10;82.00
40023;DHT22;25713;-35.352;149.036;2023-07-30T11:27:16;12.90;82.10
40023;DHT22;25713;-35.352;149.036;2023-07-30T11:29:53;13.00;83.30
40023;DHT22;25713;-35.352;149.036;2023-07-30T11:32:23;13.00;83.10
40023;DHT22;25713;-35.352;149.036;2023-07-30T11:34:52;13.00;83.40
40023;DHT22;25713;-35.352;149.036;2023-07-30T11:37:23;13.00;83.10
40023;DHT22;25713;-35.352;149.036;2023-07-30T11:39:56;13.10;83.50
40023;DHT22;25713;-35.352;149.036;2023-07-30T11:42:29;13.10;83.90
40023;DHT22;25713;-35.352;149.036;2023-07-30T11:44:59;13.20;84.30
40023;DHT22;25713;-35.352;149.036;2023-07-30T11:47:28;13.20;83.40
40023;DHT22;25713;-35.352;149.036;2023-07-30T11:49:58;13.10;82.20
40023;DHT22;25713;-35.352;149.036;2023-07-30T11:52:27;13.10;82.60
40023;DHT22;25713;-35.352;149.036;2023-07-30T11:55:03;13.10;82.40
40023;DHT22;25713;-35.352;149.036;2023-07-30T11:57:40;13.10;83.60
40023;DHT22;25713;-35.352;149.036;2023-07-30T12:00:10;13.20;82.90
40023;DHT22;25713;-35.352;149.036;2023-07-30T12:02:42;13.10;83.00
40023;DHT22;25713;-35.352;149.036;2023-07-30T12:05:12;13.10;82.70
40023;DHT22;25713;-35.352;149.036;2023-07-30T12:07:42;13.10;83.40
40023;DHT22;25713;-35.352;149.036;2023-07-30T12:10:12;13.00;81.70
40023;DHT22;25713;-35.352;149.036;2023-07-30T12:12:47;13.00;82.40
40023;DHT22;25713;-35.352;149.036;2023-07-30T12:15:20;13.00;83.00
40023;DHT22;25713;-35.352;149.036;2023-07-30T12:17:49;13.00;82.80
40023;DHT22;25713;-35.352;149.036;2023-07-30T12:20:19;13.10;83.80
40023;DHT22;25713;-35.352;149.036;2023-07-30T12:22:48;13.10;83.40
40023;DHT22;25713;-35.352;149.036;2023-07-30T12:25:17;13.10;83.60
40023;DHT22;25713;-35.352;149.036;2023-07-30T12:27:49;13.10;82.50
40023;DHT22;25713;-35.352;149.036;2023-07-30T12:30:18;13.10;82.10
40023;DHT22;25713;-35.352;149.036;2023-07-30T12:32:48;13.00;82.20
40023;DHT22;25713;-35.352;149.036;2023-07-30T12:35:17;13.00;82.70
40023;DHT22;25713;-35.352;149.036;2023-07-30T12:37:47;13.10;83.30
40023;DHT22;25713;-35.352;149.036;2023-07-30T12:40:17;13.10;83.30
40023;DHT22;25713;-35.352;149.036;2023-07-30T12:42:48;13.10;82.40
40023;DHT22;25713;-35.352;149.036;2023-07-30T12:45:18;13.00;81.40
40023;DHT22;25713;-35.352;149.036;2023-07-30T12:47:47;12.90;81.40
40023;DHT22;25713;-35.352;149.036;2023-07-30T12:50:17;12.90;81.60
40023;DHT22;25713;-35.352;149.036;2023-07-30T12:52:46;12.90;81.70
40023;DHT22;25713;-35.352;149.036;2023-07-30T12:55:15;13.00;82.30
40023;DHT22;25713;-35.352;149.036;2023-07-30T12:57:45;13.00;82.30
40023;DHT22;25713;-35.352;149.036;2023-07-30T13:00:19;12.80;80.90
40023;DHT22;25713;-35.352;149.036;2023-07-30T13:02:48;12.90;82.80
40023;DHT22;25713;-35.352;149.036;2023-07-30T13:05:18;12.90;82.40
40023;DHT22;25713;-35.352;149.036;2023-07-30T13:07:47;12.90;81.30
40023;DHT22;25713;-35.352;149.036;2023-07-30T13:10:17;12.90;81.40
40023;DHT22;25713;-35.352;149.036;2023-07-30T13:12:46;12.90;82.00
40023;DHT22;25713;-35.352;149.036;2023-07-30T13:15:18;13.00;82.30
40023;DHT22;25713;-35.352;149.036;2023-07-30T13:17:47;12.90;81.40
40023;DHT22;25713;-35.352;149.036;2023-07-30T13:20:16;12.90;82.20
40023;DHT22;25713;-35.352;149.036;2023-07-30T13:22:46;12.80;81.40
40023;DHT22;25713;-35.352;149.036;2023-07-30T13:25:15;12.80;80.50
40023;DHT22;25713;-35.352;149.036;2023-07-30T13:27:45;12.90;82.20
40023;DHT22;25713;-35.352;149.036;2023-07-30T13:30:16;12.90;82.50
40023;DHT22;25713;-35.352;149.036;2023-07-30T13:32:45;12.90;82.60
40023;DHT22;25713;-35.352;149.036;2023-07-30T13:35:15;12.90;81.60
40023;DHT22;25713;-35.352;149.036;2023-07-30T13:37:44;12.90;82.00
40023;DHT22;25713;-35.352;149.036;2023-07-30T13:40:14;12.80;77.90
40023;DHT22;25713;-35.352;149.036;2023-07-30T13:42:43;12.80;78.50
40023;DHT22;25713;-35.352;149.036;2023-07-30T13:45:13;12.70;77.10
40023;DHT22;25713;-35.352;149.036;2023-07-30T13:47:44;12.70;78.20
40023;DHT22;25713;-35.352;149.036;2023-07-30T13:50:14;12.50;76.40
40023;DHT22;25713;-35.352;149.036;2023-07-30T13:52:43;12.50;80.80
40023;DHT22;25713;-35.352;149.036;2023-07-30T13:55:13;12.50;80.20
40023;DHT22;25713;-35.352;149.036;2023-07-30T13:57:42;12.60;78.20
40023;DHT22;25713;-35.352;149.036;2023-07-30T14:00:12;12.60;79.80
40023;DHT22;25713;-35.352;149.036;2023-07-30T14:02:44;12.60;80.60
40023;DHT22;25713;-35.352;149.036;2023-07-30T14:05:14;12.70;81.50
40023;DHT22;25713;-35.352;149.036;2023-07-30T14:07:43;12.70;81.10
40023;DHT22;25713;-35.352;149.036;2023-07-30T14:10:13;12.70;80.90
40023;DHT22;25713;-35.352;149.036;2023-07-30T14:12:42;12.80;81.00
40023;DHT22;25713;-35.352;149.036;2023-07-30T14:15:12;12.80;79.80
40023;DHT22;25713;-35.352;149.036;2023-07-30T14:17:43;12.70;80.70
40023;DHT22;25713;-35.352;149.036;2023-07-30T14:20:13;12.60;79.00
40023;DHT22;25713;-35.352;149.036;2023-07-30T14:22:42;12.70;80.70
40023;DHT22;25713;-35.352;149.036;2023-07-30T14:25:12;12.70;81.20
40023;DHT22;25713;-35.352;149.036;2023-07-30T14:27:41;12.70;80.60
40023;DHT22;25713;-35.352;149.036;2023-07-30T14:30:11;12.70;80.00
40023;DHT22;25713;-35.352;149.036;2023-07-30T14:32:40;12.60;79.30
40023;DHT22;25713;-35.352;149.036;2023-07-30T14:35:12;12.50;80.80
40023;DHT22;25713;-35.352;149.036;2023-07-30T14:37:41;12.60;80.90
40023;DHT22;25713;-35.352;149.036;2023-07-30T14:40:11;12.60;80.50
40023;DHT22;25713;-35.352;149.036;2023-07-30T14:42:41;12.60;79.90
40023;DHT22;25713;-35.352;149.036;2023-07-30T14:45:11;12.50;78.60
40023;DHT22;25713;-35.352;149.036;2023-07-30T16:00:18;12.20;82.40
40023;DHT22;25713;-35.352;149.036;2023-07-30T16:02:48;12.30;81.40
40023;DHT22;25713;-35.352;149.036;2023-07-30T16:05:17;12.40;81.40
40023;DHT22;25713;-35.352;149.036;2023-07-30T16:07:47;12.30;80.20
40023;DHT22;25713;-35.352;149.036;2023-07-30T16:10:17;12.30;82.60
40023;DHT22;25713;-35.352;149.036;2023-07-30T16:12:46;12.30;81.60
40023;DHT22;25713;-35.352;149.036;2023-07-30T16:15:18;12.30;81.50
40023;DHT22;25713;-35.352;149.036;2023-07-30T16:17:47;12.30;81.50
40023;DHT22;25713;-35.352;149.036;2023-07-30T16:20:17;12.30;81.40